Interlaken, Switzerland

11:14 AM CEST on September 02, 2015 (GMT +0200)
Meiringen Mil | | Change Station
CLOSE
Current Station
Airport
Location: Meiringen Airfield,
Elevation: 1893 ft
Nearby Weather Stations

Elev 1893 ft 46.74 °N, 8.11 °E | Updated 24 minutes ago

Scattered Clouds
Scattered Clouds
63 °F
Feels Like 63 °F
N
6
Wind Variable Wind from Variable

Today
High -- | Low -- °F
--% Chance of Precip.
Yesterday
High -- | Low -- °F
Precip. -- in
6:49 AM 8:06 PM
Waning Gibbous, 82% visible
Pressure 30.01 in
Visibility 6.2 miles
Clouds Few 1000 ft
Scattered Clouds 4000 ft
Dew Point 54 °F
Humidity 72%
Rainfall 0.00 in
Snow Depth Not available.
UV 4 out of 12
Pollen Not available.
Air Quality Not available.
Flu Activity Not available.
METAR LSMM 020850Z VRB05KT 9999 FEW010 SCT040 17/12 Q1016 RMK BLU
Pressure 30.01 in
Visibility 6.2 miles
Clouds Few 1000 ft
Scattered Clouds 4000 ft
Dew Point 54 °F
Humidity 72%
Rainfall 0.00 in
Snow Depth Not available.
UV 4 out of 12
Pollen Not available.
Air Quality Not available.
Flu Activity Not available.
METAR LSMM 020850Z VRB05KT 9999 FEW010 SCT040 17/12 Q1016 RMK BLU

10-Day Weather Forecast

×

Almanac

Astronomy

Sep. 02, 2015 Rise Set
Actual Time
Civil Twilight
Nautical Twilight
Astronomical Twilight
Moon
Length of Visible Light
Length of Day
Tomorrow will be .
, % of the Moon is Illuminated

Today's Extremes

Country Highs Country Lows

Community

WunderPhotos

Upload Photos

1,851,729 photos uploaded!

WunderBlogs® & News

Nearby

Air Quality

  Air Quality AQ Index Pollutant
Not available.

Snow Depth

Station Depth Elevation

Earthquake Activity

City Distance Mag. Time & Date
Minimum magnitude displayed is 2.5.

Coastal Water Temperatures

Place Temperature

Stations

Nearby Weather Stations

Station Location Temp. Windchill Dew Point Humidity Wind Precip. Elev Updated Type